Time;durP1;ratioP1;P1;durP2;ratioP2;P2;SDS_P1;SDS_P2;PMS_P1;PMS_P2;Temp;Humidity;BMP_temperature;BMP_pressure;BME280_temperature;BME280_humidity;BME280_pressure;Samples;Min_cycle;Max_cycle;Signal;HPM_P1;HPM_P2
2021/12/12 00:01:24;;;;;;;126.50;45.90;;;2.40;99.90;;;;;;4920205;29;20052;-92
2021/12/12 00:03:56;;;;;;;129.67;45.50;;;3.70;99.90;;;;;;4919653;29;20041;-92
2021/12/12 00:06:41;;;;;;;119.30;45.43;;;2.50;99.90;;;;;;4933212;29;20044;-91
2021/12/12 00:09:15;;;;;;;;;;;2.80;99.90;;;;;;4928978;29;20079;-90
2021/12/12 00:11:50;;;;;;;111.30;42.58;;;2.80;99.90;;;;;;4921360;29;19918;-91
2021/12/12 00:14:35;;;;;;;111.43;44.50;;;3.00;99.90;;;;;;4927569;29;20052;-91
2021/12/12 00:17:09;;;;;;;126.30;45.40;;;2.60;99.90;;;;;;4924232;29;20048;-91
2021/12/12 00:19:35;;;;;;;;;;;2.60;99.90;;;;;;4919537;29;20048;-91
2021/12/12 00:22:06;;;;;;;116.87;42.30;;;2.60;99.90;;;;;;4918754;29;19958;-91
2021/12/12 00:24:36;;;;;;;103.17;42.33;;;2.80;99.90;;;;;;4918699;29;20111;-91
2021/12/12 00:27:19;;;;;;;113.53;42.17;;;2.80;99.90;;;;;;4918042;29;20111;-91
2021/12/12 00:29:51;;;;;;;104.00;42.57;;;3.40;99.90;;;;;;4918522;29;20048;-91
2021/12/12 00:32:28;;;;;;;97.67;41.53;;;3.00;99.90;;;;;;4918154;29;20484;-91
2021/12/12 00:34:58;;;;;;;99.97;42.03;;;3.50;99.90;;;;;;4917495;29;20050;-90
2021/12/12 00:37:40;;;;;;;94.00;40.90;;;3.20;99.90;;;;;;4917917;29;20044;-90
2021/12/12 00:40:35;;;;;;;94.87;42.63;;;2.00;99.90;;;;;;4917901;29;20091;-91
2021/12/12 00:43:19;;;;;;;103.93;40.20;;;2.80;99.90;;;;;;4901163;29;20056;-90
2021/12/12 00:45:46;;;;;;;92.33;39.87;;;2.60;99.90;;;;;;4918704;29;20064;-91
2021/12/12 00:48:22;;;;;;;88.87;40.37;;;3.10;99.90;;;;;;4917810;29;20059;-91
2021/12/12 00:50:48;;;;;;;88.00;41.77;;;3.60;99.90;;;;;;4916969;29;20131;-91
2021/12/12 00:53:20;;;;;;;93.00;40.33;;;3.40;99.90;;;;;;4916887;29;20087;-91
2021/12/12 00:56:11;;;;;;;100.50;45.17;;;3.40;99.90;;;;;;4917799;29;20084;-91
2021/12/12 00:58:43;;;;;;;94.20;39.13;;;4.10;99.90;;;;;;4916741;29;20055;-92
2021/12/12 01:01:31;;;;;;;85.77;39.03;;;4.10;99.90;;;;;;4916678;29;20051;-91
2021/12/12 01:04:09;;;;;;;83.50;39.37;;;2.90;99.90;;;;;;4917164;29;20060;-91
2021/12/12 01:06:56;;;;;;;87.67;37.87;;;2.70;99.90;;;;;;4916508;29;20492;-91
2021/12/12 01:09:33;;;;;;;87.60;38.20;;;2.70;99.90;;;;;;4918366;29;20055;-91
2021/12/12 01:12:22;;;;;;;85.53;37.40;;;2.80;99.90;;;;;;4916643;29;20100;-92
2021/12/12 01:15:11;;;;;;;84.10;36.47;;;2.80;99.90;;;;;;4916962;29;20086;-90
2021/12/12 01:17:55;;;;;;;78.73;36.70;;;2.90;99.90;;;;;;4938351;23;20059;-90
2021/12/12 01:20:44;;;;;;;88.22;38.92;;;2.80;99.90;;;;;;4935285;29;20059;-92
2021/12/12 01:23:32;;;;;;;84.27;37.03;;;2.90;99.90;;;;;;4936250;29;20531;-91
2021/12/12 01:25:58;;;;;;;77.37;35.53;;;2.10;99.90;;;;;;4935428;29;20051;-91
2021/12/12 01:31:30;;;;;;;77.93;34.13;;;2.80;99.90;;;;;;4943584;23;20074;-92
2021/12/12 01:34:11;;;;;;;71.30;34.37;;;3.80;99.90;;;;;;4919486;29;20050;-91
2021/12/12 01:39:45;;;;;;;71.67;32.87;;;2.20;99.90;;;;;;4919815;29;19944;-92
2021/12/12 01:42:23;;;;;;;65.53;31.70;;;2.80;99.90;;;;;;4919310;29;20556;-92
2021/12/12 01:45:35;;;;;;;67.30;32.00;;;2.80;99.90;;;;;;4919266;23;20056;-91
2021/12/12 01:48:21;;;;;;;63.83;32.43;;;2.00;99.90;;;;;;4897859;29;20053;-91
2021/12/12 01:50:52;;;;;;;65.30;31.57;;;4.10;99.90;;;;;;4897714;29;20045;-91
2021/12/12 01:53:32;;;;;;;67.43;32.00;;;3.30;99.90;;;;;;4898614;29;20108;-90
2021/12/12 01:56:53;;;;;;;69.80;31.80;;;2.90;99.90;;;;;;4898020;29;20063;-91
2021/12/12 01:59:35;;;;;;;59.67;31.27;;;3.20;99.90;;;;;;4938120;23;20066;-91
2021/12/12 02:02:21;;;;;;;61.20;30.37;;;3.00;99.90;;;;;;4962768;29;20502;-92
2021/12/12 02:05:05;;;;;;;64.53;30.07;;;3.20;99.90;;;;;;4954058;29;20079;-91
2021/12/12 02:07:52;;;;;;;57.30;30.27;;;2.90;99.90;;;;;;4961220;28;20086;-92
2021/12/12 02:10:33;;;;;;;59.47;29.10;;;3.40;99.90;;;;;;4959132;23;20099;-92
2021/12/12 02:13:19;;;;;;;54.00;28.37;;;2.90;99.90;;;;;;4919563;29;20082;-92
2021/12/12 02:16:00;;;;;;;60.17;30.43;;;2.90;99.90;;;;;;4920583;29;20066;-92
2021/12/12 02:18:32;;;;;;;57.20;29.00;;;3.00;99.90;;;;;;4920299;29;20044;-92
2021/12/12 02:21:21;;;;;;;62.87;28.33;;;4.40;99.90;;;;;;4904138;29;20079;-90
2021/12/12 02:37:44;;;;;;;60.63;27.47;;;4.00;99.90;;;;;;4948122;23;20428;-92
2021/12/12 02:40:26;;;;;;;54.40;26.00;;;3.90;99.90;;;;;;4941801;29;20532;-93
2021/12/12 02:43:07;;;;;;;53.77;25.80;;;4.70;99.90;;;;;;4930228;28;20035;-92
2021/12/12 02:45:41;;;;;;;48.17;26.23;;;3.90;99.90;;;;;;4946653;28;20095;-92
2021/12/12 02:48:30;;;;;;;52.67;27.10;;;3.20;99.90;;;;;;4946824;28;20038;-92
2021/12/12 02:51:16;;;;;;;55.87;26.17;;;3.30;99.90;;;;;;4938752;29;20043;-93
2021/12/12 02:53:58;;;;;;;57.93;27.33;;;3.20;99.90;;;;;;4923607;29;20043;-92
2021/12/12 02:56:48;;;;;;;52.10;25.87;;;2.90;99.90;;;;;;4923333;29;20142;-92
2021/12/12 02:59:18;;;;;;;59.40;27.93;;;3.10;99.90;;;;;;4922367;29;20412;-93
2021/12/12 03:01:57;;;;;;;55.77;25.70;;;3.60;99.90;;;;;;4923421;29;20044;-92
2021/12/12 03:07:24;;;;;;;63.13;27.90;;;3.20;99.90;;;;;;4937850;29;20058;-92
2021/12/12 03:10:02;;;;;;;47.13;24.83;;;3.10;99.90;;;;;;4921843;29;20103;-92
2021/12/12 03:12:33;;;;;;;51.93;25.73;;;3.10;99.90;;;;;;4922724;29;20115;-92
2021/12/12 03:15:31;;;;;;;52.67;24.57;;;3.20;99.90;;;;;;4921037;29;20056;-91
2021/12/12 03:18:00;;;;;;;50.93;25.33;;;3.30;99.90;;;;;;4920920;29;20070;-93
2021/12/12 03:20:38;;;;;;;48.50;24.90;;;3.10;99.90;;;;;;4923121;29;20106;-94
2021/12/12 03:23:30;;;;;;;52.30;27.27;;;4.10;99.90;;;;;;4922490;29;20063;-94
2021/12/12 03:26:04;;;;;;;54.23;26.10;;;3.40;99.90;;;;;;4922773;29;20083;-94
2021/12/12 03:28:51;;;;;;;54.40;24.00;;;4.00;99.90;;;;;;4922274;29;20547;-94
2021/12/12 03:31:39;;;;;;;57.77;25.77;;;3.90;99.90;;;;;;4922743;29;20039;-93
2021/12/12 03:34:22;;;;;;;57.17;26.40;;;4.50;99.90;;;;;;4923053;29;20067;-94
2021/12/12 03:37:06;;;;;;;50.70;23.27;;;4.20;99.90;;;;;;4933332;29;20055;-94
2021/12/12 03:39:51;;;;;;;55.90;26.08;;;3.50;99.90;;;;;;4939212;29;20107;-94
2021/12/12 03:42:32;;;;;;;45.53;23.83;;;4.40;99.90;;;;;;4938695;29;20405;-93
2021/12/12 03:44:59;;;;;;;62.60;26.93;;;3.20;99.90;;;;;;4938680;29;20118;-92
2021/12/12 03:47:49;;;;;;;55.83;25.33;;;3.30;99.90;;;;;;4938379;29;20043;-92
2021/12/12 03:50:35;;;;;;;53.80;24.23;;;3.40;99.90;;;;;;4937946;29;20031;-93
2021/12/12 03:53:03;;;;;;;61.77;24.57;;;4.20;99.90;;;;;;4952187;29;20040;-93
2021/12/12 03:55:46;;;;;;;53.23;23.10;;;3.30;99.90;;;;;;4953646;29;20043;-94
2021/12/12 03:58:12;;;;;;;57.53;24.40;;;3.30;99.90;;;;;;4938229;29;20056;-93
2021/12/12 04:00:54;;;;;;;53.97;24.53;;;3.30;99.90;;;;;;4938421;29;20056;-93
2021/12/12 04:03:21;;;;;;;45.37;22.73;;;3.40;99.90;;;;;;4961017;29;20043;-94
2021/12/12 04:05:58;;;;;;;49.80;23.87;;;3.30;99.90;;;;;;4942068;29;20048;-93
2021/12/12 04:08:45;;;;;;;50.50;24.57;;;3.30;99.90;;;;;;4937850;29;20055;-93
2021/12/12 04:11:25;;;;;;;54.00;23.67;;;4.30;99.90;;;;;;4938516;29;20048;-92
2021/12/12 04:13:58;;;;;;;42.90;22.83;;;3.90;99.90;;;;;;4942526;29;20051;-91
2021/12/12 04:16:41;;;;;;;56.53;24.57;;;4.40;99.90;;;;;;4937506;29;20052;-93
2021/12/12 04:19:08;;;;;;;53.15;23.67;;;3.90;99.90;;;;;;4938411;29;20044;-94
2021/12/12 04:21:47;;;;;;;57.37;24.33;;;4.50;99.90;;;;;;4937379;29;20548;-94
2021/12/12 04:24:32;;;;;;;51.70;23.37;;;3.90;99.90;;;;;;4937890;29;20047;-95
2021/12/12 04:27:16;;;;;;;43.00;22.30;;;4.30;99.90;;;;;;4936965;29;20039;-94
2021/12/12 04:29:45;;;;;;;41.17;21.10;;;3.50;99.90;;;;;;4936574;29;20475;-94
2021/12/12 04:32:19;;;;;;;40.40;19.70;;;4.70;99.90;;;;;;4936831;29;20060;-93
2021/12/12 04:35:00;;;;;;;43.93;21.37;;;3.70;99.90;;;;;;4936664;29;20153;-93
2021/12/12 04:38:05;;;;;;;40.70;20.87;;;3.60;99.90;;;;;;4936927;29;20555;-92
2021/12/12 04:40:34;;;;;;;36.90;19.73;;;3.70;99.90;;;;;;4938600;29;20053;-93
2021/12/12 04:43:09;;;;;;;40.07;19.73;;;4.50;99.90;;;;;;4937561;29;20070;-93
2021/12/12 04:46:04;;;;;;;49.67;21.33;;;4.20;99.90;;;;;;4937156;29;20377;-93
2021/12/12 04:52:08;;;;;;;44.33;20.77;;;3.70;99.90;;;;;;4938235;29;20500;-93
2021/12/12 04:54:57;;;;;;;41.43;20.10;;;3.90;99.90;;;;;;4937793;29;20051;-94
2021/12/12 04:57:50;;;;;;;41.80;20.10;;;4.70;99.90;;;;;;4936516;29;20050;-94
2021/12/12 05:00:34;;;;;;;41.53;18.90;;;3.90;99.90;;;;;;4935428;29;20184;-92
2021/12/12 05:03:22;;;;;;;42.90;19.25;;;4.30;99.90;;;;;;4936473;29;20300;-92
2021/12/12 05:06:07;;;;;;;44.17;19.37;;;4.50;99.90;;;;;;4935418;29;20055;-94
2021/12/12 05:09:18;;;;;;;43.87;18.87;;;3.80;99.90;;;;;;4936802;29;20052;-93
2021/12/12 05:12:08;;;;;;;43.20;20.23;;;4.00;99.90;;;;;;4936864;29;20070;-91
2021/12/12 05:14:54;;;;;;;36.23;17.70;;;3.30;99.90;;;;;;4935989;29;20106;-92
2021/12/12 05:17:40;;;;;;;33.60;17.50;;;4.30;99.90;;;;;;4935846;29;20056;-93
2021/12/12 05:20:25;;;;;;;31.47;16.00;;;4.10;99.90;;;;;;4935357;29;20111;-92
2021/12/12 05:23:07;;;;;;;32.40;16.50;;;3.80;99.90;;;;;;4936993;29;20047;-91
2021/12/12 05:26:06;;;;;;;33.57;16.43;;;4.70;99.90;;;;;;4940515;29;20048;-92
2021/12/12 05:28:59;;;;;;;30.60;15.70;;;4.20;99.90;;;;;;4926337;29;20058;-92
2021/12/12 05:31:46;;;;;;;30.87;16.57;;;4.20;99.90;;;;;;4935884;29;20044;-92
2021/12/12 05:34:13;;;;;;;33.00;15.63;;;4.10;99.90;;;;;;4936025;29;20051;-92
2021/12/12 05:36:46;;;;;;;25.80;13.27;;;4.60;99.90;;;;;;4935767;29;20139;-91
2021/12/12 05:39:12;;;;;;;26.65;14.70;;;3.70;99.90;;;;;;4935758;29;20048;-90
2021/12/12 05:42:04;;;;;;;24.83;13.37;;;5.10;99.90;;;;;;4944889;23;20165;-93
2021/12/12 05:44:36;;;;;;;26.20;13.93;;;4.20;99.90;;;;;;4945677;29;20036;-90
2021/12/12 05:47:05;;;;;;;25.07;13.63;;;4.70;99.90;;;;;;4958323;29;20051;-91
2021/12/12 05:49:50;;;;;;;25.97;13.17;;;4.40;99.90;;;;;;4975714;28;20091;-92
2021/12/12 05:52:40;;;;;;;25.23;12.77;;;5.10;99.90;;;;;;4959892;29;20047;-90
2021/12/12 05:55:27;;;;;;;22.33;11.23;;;4.40;99.90;;;;;;4944284;23;20043;-90
2021/12/12 05:57:56;;;;;;;23.73;12.73;;;4.40;99.90;;;;;;4975129;28;20054;-90
2021/12/12 06:00:56;;;;;;;23.47;11.97;;;4.10;99.90;;;;;;4958927;23;20055;-91
2021/12/12 06:03:25;;;;;;;23.90;12.67;;;4.90;99.90;;;;;;4936229;29;20103;-90
2021/12/12 06:06:17;;;;;;;20.53;10.80;;;4.10;99.90;;;;;;4935845;29;20098;-91
2021/12/12 06:11:19;;;;;;;21.73;11.43;;;4.30;99.90;;;;;;4967229;23;20055;-92
2021/12/12 06:13:48;;;;;;;18.70;10.60;;;5.50;99.90;;;;;;4953583;29;20050;-91
2021/12/12 06:16:18;;;;;;;21.60;11.57;;;4.10;99.90;;;;;;4954650;29;20047;-92
2021/12/12 06:19:02;;;;;;;21.47;11.00;;;4.10;99.90;;;;;;4954165;29;20059;-92
2021/12/12 06:21:38;;;;;;;;;;;4.20;99.90;;;;;;4955208;29;20050;-91
2021/12/12 06:24:05;;;;;;;21.67;11.30;;;4.30;99.90;;;;;;4954295;29;19922;-92
2021/12/12 06:26:31;;;;;;;21.00;10.90;;;5.10;99.90;;;;;;4953755;29;20043;-90
2021/12/12 06:29:13;;;;;;;19.63;11.23;;;4.80;99.90;;;;;;4954350;29;20488;-91
2021/12/12 06:31:58;;;;;;;24.43;11.97;;;4.30;99.90;;;;;;4954584;29;20039;-91
2021/12/12 06:34:27;;;;;;;20.77;10.23;;;4.90;99.90;;;;;;4955249;29;20167;-91
2021/12/12 06:36:53;;;;;;;23.63;12.03;;;4.80;99.90;;;;;;4953930;29;20044;-91
2021/12/12 06:39:32;;;;;;;20.60;11.07;;;4.10;99.90;;;;;;4955344;29;20046;-91
2021/12/12 06:41:58;;;;;;;23.43;11.83;;;4.20;99.90;;;;;;4942058;23;20071;-93
2021/12/12 06:44:24;;;;;;;22.50;11.37;;;4.50;99.90;;;;;;4915820;29;20401;-91
2021/12/12 06:47:05;;;;;;;21.60;12.47;;;4.70;99.90;;;;;;4916077;29;20131;-91
2021/12/12 06:49:31;;;;;;;24.60;12.03;;;4.40;99.90;;;;;;4916392;29;20044;-92
2021/12/12 06:52:00;;;;;;;25.33;12.10;;;4.50;99.90;;;;;;4916796;29;20044;-93
2021/12/12 06:54:32;;;;;;;23.00;12.43;;;4.90;99.90;;;;;;4914600;29;20147;-92
2021/12/12 06:57:16;;;;;;;21.37;11.70;;;5.00;99.90;;;;;;4915853;29;20067;-92
2021/12/12 06:59:44;;;;;;;21.23;11.73;;;4.20;99.90;;;;;;4918570;29;20044;-92
2021/12/12 07:02:28;;;;;;;20.17;10.83;;;5.30;99.90;;;;;;4919958;29;20496;-91
2021/12/12 07:04:54;;;;;;;23.17;11.68;;;4.30;99.90;;;;;;4924121;29;20473;-92
2021/12/12 07:07:40;;;;;;;21.30;12.30;;;4.20;99.90;;;;;;4922594;29;20076;-92
2021/12/12 07:10:17;;;;;;;22.20;11.40;;;4.20;99.90;;;;;;4921185;29;20043;-92
2021/12/12 07:12:58;;;;;;;22.37;12.27;;;5.10;99.90;;;;;;4919268;29;20044;-92
2021/12/12 07:15:35;;;;;;;23.77;12.13;;;4.20;99.90;;;;;;4919811;29;20052;-92
2021/12/12 07:18:14;;;;;;;24.43;12.67;;;4.30;99.90;;;;;;4919380;29;20043;-92
2021/12/12 07:20:51;;;;;;;21.30;10.90;;;4.40;99.90;;;;;;4918984;29;20091;-91
2021/12/12 07:23:31;;;;;;;29.40;13.77;;;5.30;99.90;;;;;;4919689;29;20484;-91
2021/12/12 07:26:14;;;;;;;26.33;13.13;;;4.40;99.90;;;;;;4918748;29;20104;-91
2021/12/12 07:28:46;;;;;;;22.47;12.40;;;4.30;99.90;;;;;;4919298;29;20143;-86
2021/12/12 07:31:18;;;;;;;22.67;12.53;;;4.50;99.90;;;;;;4918839;29;20480;-83
2021/12/12 07:33:47;;;;;;;22.37;12.03;;;5.40;99.90;;;;;;4916896;29;20048;-84
2021/12/12 07:36:32;;;;;;;22.50;12.40;;;5.30;99.90;;;;;;4917646;29;20549;-84
2021/12/12 07:39:16;;;;;;;24.37;12.83;;;4.90;99.90;;;;;;4917260;29;20524;-84
2021/12/12 07:41:44;;;;;;;23.65;12.50;;;4.50;99.90;;;;;;4918861;29;20560;-87
2021/12/12 07:44:16;;;;;;;23.40;12.47;;;4.50;99.90;;;;;;4920006;29;20087;-84
2021/12/12 07:46:44;;;;;;;23.73;13.33;;;4.40;99.90;;;;;;4919390;29;20047;-86
2021/12/12 07:49:12;;;;;;;24.60;13.33;;;4.50;99.90;;;;;;4917912;29;20094;-85
2021/12/12 07:51:41;;;;;;;22.63;12.13;;;4.60;99.90;;;;;;4920989;29;20051;-86
2021/12/12 07:54:27;;;;;;;25.30;12.83;;;4.60;99.90;;;;;;4918246;29;20044;-85
2021/12/12 07:56:53;;;;;;;23.90;12.50;;;4.60;99.90;;;;;;4918393;29;20040;-85
2021/12/12 07:59:19;;;;;;;24.73;13.13;;;5.50;99.90;;;;;;4917589;29;20411;-86
2021/12/12 08:02:00;;;;;;;31.87;19.43;;;5.30;99.90;;;;;;4917083;29;20048;-86
2021/12/12 08:04:30;;;;;;;24.23;13.30;;;4.70;99.90;;;;;;4917956;29;20048;-86
2021/12/12 08:06:57;;;;;;;35.20;21.20;;;4.70;99.90;;;;;;4917946;29;20091;-86
2021/12/12 08:09:42;;;;;;;28.03;15.23;;;4.70;99.90;;;;;;4917890;29;20048;-84
2021/12/12 08:12:13;;;;;;;24.87;14.13;;;4.70;99.90;;;;;;4917123;29;20056;-81
2021/12/12 08:14:40;;;;;;;24.27;15.03;;;4.90;99.90;;;;;;4917481;29;20070;-84
2021/12/12 08:17:06;;;;;;;27.83;13.30;;;4.70;99.90;;;;;;4910681;29;20135;-82
2021/12/12 08:19:43;;;;;;;29.43;14.17;;;5.00;99.90;;;;;;4912525;29;20080;-87
2021/12/12 08:22:11;;;;;;;21.07;12.33;;;4.60;99.90;;;;;;4917678;29;20032;-87
2021/12/12 08:24:38;;;;;;;28.33;15.07;;;4.80;99.90;;;;;;4916755;29;20485;-86
2021/12/12 08:27:07;;;;;;;25.73;13.77;;;5.80;99.90;;;;;;4916475;29;20095;-82
2021/12/12 08:29:49;;;;;;;21.13;11.40;;;5.00;99.90;;;;;;4917493;29;20044;-82
2021/12/12 08:32:15;;;;;;;30.03;17.97;;;4.80;99.90;;;;;;4916763;29;20059;-82
2021/12/12 08:35:00;;;;;;;24.07;13.13;;;4.90;99.90;;;;;;4916703;29;20052;-83
2021/12/12 08:37:34;;;;;;;29.57;15.47;;;4.80;99.90;;;;;;4916717;29;20048;-83
2021/12/12 08:40:02;;;;;;;26.73;14.83;;;5.60;99.90;;;;;;4916446;29;20371;-83
2021/12/12 08:42:28;;;;;;;29.43;15.60;;;4.90;99.90;;;;;;4910028;29;20051;-83
2021/12/12 08:45:11;;;;;;;26.17;14.40;;;5.50;99.90;;;;;;4901926;29;20104;-83
2021/12/12 08:47:54;;;;;;;28.75;16.13;;;4.90;99.90;;;;;;4905797;29;20055;-83
2021/12/12 08:50:34;;;;;;;32.17;16.67;;;4.80;99.90;;;;;;4914704;29;20048;-83
2021/12/12 08:53:26;;;;;;;28.87;16.30;;;5.00;99.90;;;;;;4901386;29;20057;-83
2021/12/12 08:55:54;;;;;;;27.17;15.80;;;5.20;99.90;;;;;;4898437;29;20040;-83
2021/12/12 08:58:24;;;;;;;31.00;16.80;;;5.20;99.90;;;;;;4897004;29;20052;-83
2021/12/12 09:01:11;;;;;;;30.63;17.53;;;4.60;99.90;;;;;;4896921;29;20052;-83
2021/12/12 09:03:59;;;;;;;26.30;15.73;;;5.10;99.90;;;;;;4897159;29;20100;-83
2021/12/12 09:06:32;;;;;;;32.27;18.20;;;5.40;99.90;;;;;;4896973;29;20049;-83
2021/12/12 09:09:04;;;;;;;27.07;17.03;;;5.40;99.90;;;;;;4896876;29;20045;-82
2021/12/12 09:11:41;;;;;;;33.37;18.90;;;5.50;99.90;;;;;;4896581;29;20140;-83
2021/12/12 09:14:36;;;;;;;33.97;17.77;;;5.50;99.90;;;;;;4897270;29;20055;-83
2021/12/12 09:17:16;;;;;;;32.23;18.27;;;5.50;99.90;;;;;;4896331;29;20422;-83
2021/12/12 09:20:14;;;;;;;27.30;17.33;;;5.60;99.90;;;;;;4917457;23;20071;-83
2021/12/12 09:23:00;;;;;;;30.80;17.70;;;5.60;99.90;;;;;;4915321;29;20055;-86
2021/12/12 09:25:37;;;;;;;30.10;19.07;;;5.60;99.90;;;;;;4915939;29;20160;-85
2021/12/12 09:28:24;;;;;;;29.43;16.37;;;5.70;99.90;;;;;;4915487;29;20550;-83
2021/12/12 09:30:50;;;;;;;43.03;30.87;;;5.70;99.90;;;;;;4914888;29;20473;-85
2021/12/12 09:33:24;;;;;;;28.70;15.83;;;5.70;99.90;;;;;;4917860;29;20115;-83
2021/12/12 09:35:53;;;;;;;43.63;31.20;;;5.70;99.90;;;;;;4915109;29;20056;-83
2021/12/12 09:38:25;;;;;;;28.07;16.67;;;5.70;99.90;;;;;;4915247;29;20056;-84
2021/12/12 09:40:57;;;;;;;33.70;19.80;;;5.80;99.90;;;;;;4914700;29;20446;-83
2021/12/12 09:43:58;;;;;;;32.13;17.50;;;5.80;99.90;;;;;;4916404;29;20407;-84
2021/12/12 09:46:57;;;;;;;34.07;17.60;;;5.80;99.90;;;;;;4915327;29;20048;-84
2021/12/12 09:52:42;;;;;;;41.00;23.63;;;6.60;99.90;;;;;;4915688;29;20109;-84
2021/12/12 09:55:12;;;;;;;42.10;23.58;;;5.90;99.90;;;;;;4914636;29;20083;-83
2021/12/12 09:57:46;;;;;;;35.23;17.73;;;5.90;99.90;;;;;;4915332;29;20078;-84
2021/12/12 10:00:36;;;;;;;40.95;20.67;;;6.00;99.90;;;;;;4915250;29;20155;-84
2021/12/12 10:03:11;;;;;;;37.00;18.03;;;6.00;99.90;;;;;;4911450;29;20051;-85
2021/12/12 10:05:52;;;;;;;37.80;18.77;;;6.00;99.90;;;;;;4914879;29;20040;-84
2021/12/12 10:08:57;;;;;;;38.00;19.80;;;6.00;99.90;;;;;;4913983;29;20055;-83
2021/12/12 10:11:39;;;;;;;44.33;20.30;;;6.10;99.90;;;;;;4912957;29;20044;-83
2021/12/12 10:14:30;;;;;;;39.17;19.03;;;6.10;99.90;;;;;;4913972;29;20139;-83
2021/12/12 10:17:08;;;;;;;42.40;21.13;;;6.20;99.90;;;;;;4895556;29;20057;-83
2021/12/12 10:20:33;;;;;;;37.33;19.50;;;6.20;99.90;;;;;;4881522;29;20048;-83
2021/12/12 10:23:16;;;;;;;45.75;21.48;;;6.30;99.90;;;;;;4856053;29;20050;-84
2021/12/12 10:26:20;;;;;;;43.90;22.07;;;6.40;99.90;;;;;;4856206;29;20078;-84
2021/12/12 10:28:51;;;;;;;49.67;21.73;;;6.40;99.90;;;;;;4877780;29;20068;-83
2021/12/12 10:31:30;;;;;;;39.77;20.47;;;6.30;99.90;;;;;;4880930;29;20041;-84
2021/12/12 10:34:20;;;;;;;40.70;21.23;;;6.80;99.90;;;;;;4928444;23;20135;-84
2021/12/12 10:37:04;;;;;;;45.07;21.27;;;6.30;99.90;;;;;;4919583;29;20067;-84
2021/12/12 10:39:34;;;;;;;41.88;22.05;;;6.60;99.90;;;;;;4919384;29;20370;-85
2021/12/12 10:42:21;;;;;;;40.50;21.20;;;7.10;99.90;;;;;;4918667;29;20047;-82
2021/12/12 10:44:55;;;;;;;41.93;23.67;;;6.60;99.90;;;;;;4917704;29;20056;-82
2021/12/12 10:47:47;;;;;;;39.22;20.73;;;6.60;99.90;;;;;;4916733;29;20107;-81
2021/12/12 10:50:21;;;;;;;33.33;18.43;;;6.70;99.90;;;;;;4913067;29;20806;-81
2021/12/12 10:52:56;;;;;;;;;;;6.70;99.90;;;;;;4917162;29;20055;-81
2021/12/12 10:55:31;;;;;;;31.83;18.20;;;6.80;99.90;;;;;;4915477;29;19927;-82
2021/12/12 10:58:10;;;;;;;32.10;17.37;;;6.80;99.90;;;;;;4915324;29;20059;-82
2021/12/12 11:00:44;;;;;;;33.03;17.33;;;6.90;99.90;;;;;;4915828;29;20059;-83
2021/12/12 11:03:45;;;;;;;35.77;18.33;;;6.90;99.90;;;;;;4918361;29;20538;-83
2021/12/12 11:06:25;;;;;;;34.87;17.47;;;7.00;99.90;;;;;;4917956;29;20044;-83
2021/12/12 11:09:13;;;;;;;31.40;16.77;;;7.00;99.90;;;;;;4917829;29;20048;-82
2021/12/12 11:11:43;;;;;;;28.50;15.40;;;7.00;99.90;;;;;;4918450;29;20087;-82
2021/12/12 11:14:21;;;;;;;30.27;16.27;;;7.00;99.90;;;;;;4949889;23;20067;-82
2021/12/12 11:16:55;;;;;;;26.97;14.33;;;7.10;99.90;;;;;;4917614;29;20063;-82
2021/12/12 11:19:40;;;;;;;31.43;16.57;;;7.10;99.90;;;;;;4917507;29;20082;-82
2021/12/12 11:22:15;;;;;;;30.37;16.57;;;7.10;99.90;;;;;;4917626;29;20051;-83
2021/12/12 11:24:46;;;;;;;35.23;19.40;;;7.10;99.90;;;;;;4917426;29;20040;-83
2021/12/12 11:27:19;;;;;;;26.53;14.90;;;7.20;99.90;;;;;;4917285;29;20413;-82
2021/12/12 11:30:08;;;;;;;28.93;16.73;;;7.20;99.90;;;;;;4920110;29;20416;-82
2021/12/12 11:32:35;;;;;;;29.10;15.73;;;7.30;99.90;;;;;;4911631;29;20064;-82
2021/12/12 11:35:04;;;;;;;29.13;15.13;;;7.30;99.90;;;;;;4917313;29;20123;-82
2021/12/12 11:37:38;;;;;;;26.50;14.53;;;7.40;99.90;;;;;;4914810;29;20079;-83
2021/12/12 11:40:22;;;;;;;27.00;15.63;;;7.40;99.90;;;;;;4916687;29;20082;-83
2021/12/12 11:42:47;;;;;;;;;;;7.40;99.90;;;;;;4917006;29;20056;-83
2021/12/12 11:45:39;;;;;;;25.93;13.33;;;7.40;99.90;;;;;;4916586;29;19930;-82
2021/12/12 11:48:21;;;;;;;24.13;13.10;;;7.40;99.90;;;;;;4916279;29;20056;-83
2021/12/12 11:50:55;;;;;;;26.13;14.00;;;7.40;99.90;;;;;;4930038;29;20028;-82
2021/12/12 11:53:35;;;;;;;;;;;7.40;99.90;;;;;;4941815;29;20055;-82
2021/12/12 11:56:05;;;;;;;25.03;13.27;;;7.50;99.90;;;;;;4921853;29;20317;-83
2021/12/12 11:58:38;;;;;;;25.00;14.93;;;7.50;99.90;;;;;;4921033;29;20424;-82
2021/12/12 12:01:31;;;;;;;23.17;12.50;;;7.50;99.90;;;;;;4917068;29;20044;-82
2021/12/12 12:04:16;;;;;;;21.37;12.53;;;7.50;99.90;;;;;;4916670;29;20040;-82
2021/12/12 12:07:03;;;;;;;23.90;13.90;;;7.60;99.90;;;;;;4914293;29;20059;-86
2021/12/12 12:09:46;;;;;;;22.77;13.13;;;7.60;99.90;;;;;;4916439;29;20048;-85
2021/12/12 12:12:32;;;;;;;22.53;12.07;;;7.60;99.90;;;;;;4917040;29;20044;-85
2021/12/12 12:15:27;;;;;;;26.40;14.10;;;7.60;99.90;;;;;;4916098;29;20067;-84
2021/12/12 12:18:29;;;;;;;25.00;13.23;;;7.70;99.90;;;;;;4916658;29;20058;-85
2021/12/12 12:21:14;;;;;;;23.83;13.20;;;7.70;99.90;;;;;;4895752;29;20111;-84
2021/12/12 12:26:52;;;;;;;31.43;17.93;;;7.70;99.90;;;;;;4916878;29;20051;-82
2021/12/12 12:29:27;;;;;;;27.03;16.97;;;7.70;99.90;;;;;;4916432;29;20412;-83
2021/12/12 12:32:07;;;;;;;39.17;27.63;;;7.80;99.90;;;;;;4915619;29;20040;-83
2021/12/12 12:35:11;;;;;;;31.03;17.43;;;7.80;99.90;;;;;;4916111;29;20043;-83
2021/12/12 12:38:07;;;;;;;26.23;14.80;;;7.80;99.90;;;;;;4903544;29;20063;-82
2021/12/12 12:41:10;;;;;;;30.63;16.47;;;7.90;99.90;;;;;;4897893;29;20406;-83
2021/12/12 12:44:13;;;;;;;24.30;14.17;;;7.90;99.90;;;;;;4909395;29;20109;-83
2021/12/12 12:47:30;;;;;;;35.20;19.20;;;7.90;99.90;;;;;;4910130;29;20058;-83
2021/12/12 12:50:35;;;;;;;30.43;16.80;;;7.90;99.90;;;;;;4900548;29;20107;-83
2021/12/12 12:53:32;;;;;;;32.70;16.17;;;7.90;99.90;;;;;;4909547;29;20064;-83
2021/12/12 12:56:44;;;;;;;36.00;16.73;;;7.90;99.90;;;;;;4896560;29;20081;-84
2021/12/12 12:59:50;;;;;;;35.20;17.93;;;8.00;99.90;;;;;;4911962;29;20756;-83
2021/12/12 13:02:32;;;;;;;41.13;20.80;;;8.00;99.90;;;;;;4909713;29;20044;-84
2021/12/12 13:05:08;;;;;;;41.00;24.57;;;8.00;99.90;;;;;;4915532;29;20076;-83
2021/12/12 13:07:40;;;;;;;32.67;17.47;;;8.00;99.90;;;;;;4915590;29;20101;-82
2021/12/12 13:10:10;;;;;;;35.53;18.67;;;8.00;99.90;;;;;;4915522;29;20108;-83
2021/12/12 13:13:06;;;;;;;35.33;20.83;;;8.10;99.90;;;;;;4916417;29;20493;-82
2021/12/12 13:16:00;;;;;;;37.53;18.40;;;8.10;99.90;;;;;;4915185;29;20060;-82
2021/12/12 13:19:04;;;;;;;34.78;18.40;;;8.10;99.90;;;;;;4916259;29;20052;-82
2021/12/12 13:22:02;;;;;;;41.42;21.75;;;8.10;99.90;;;;;;4915203;29;20052;-83
2021/12/12 13:24:43;;;;;;;41.13;21.13;;;8.20;99.90;;;;;;4916706;29;20051;-83
2021/12/12 13:27:56;;;;;;;32.47;17.13;;;8.10;99.90;;;;;;4915449;29;20138;-83
2021/12/12 13:30:29;;;;;;;44.67;20.07;;;8.10;99.90;;;;;;4912311;29;20459;-83
2021/12/12 13:33:10;;;;;;;110.45;83.43;;;8.20;99.90;;;;;;4914907;29;20043;-83
2021/12/12 13:36:02;;;;;;;51.63;30.80;;;8.10;99.90;;;;;;4916054;29;20417;-83
2021/12/12 13:38:52;;;;;;;38.80;23.13;;;8.20;99.90;;;;;;4915594;29;20063;-83
2021/12/12 13:41:41;;;;;;;44.40;23.13;;;8.20;99.90;;;;;;4915191;29;20110;-83
2021/12/12 13:44:31;;;;;;;37.70;19.60;;;8.20;99.90;;;;;;4915297;29;20056;-83
2021/12/12 13:47:06;;;;;;;42.47;19.57;;;8.20;99.90;;;;;;4914050;29;20048;-83
2021/12/12 13:49:44;;;;;;;57.77;29.20;;;8.20;99.90;;;;;;4914906;29;20401;-84
2021/12/12 13:52:48;;;;;;;45.93;23.67;;;8.30;99.90;;;;;;4915042;29;20048;-84
2021/12/12 13:55:17;;;;;;;37.38;19.02;;;8.30;99.90;;;;;;4909958;29;20060;-85
2021/12/12 13:58:08;;;;;;;47.30;24.33;;;8.20;99.90;;;;;;4914583;29;20051;-85
2021/12/12 14:00:45;;;;;;;39.03;18.97;;;8.30;99.90;;;;;;4915666;29;20040;-84
2021/12/12 14:03:32;;;;;;;52.93;27.83;;;8.40;99.90;;;;;;4914674;29;20172;-85
2021/12/12 14:06:02;;;;;;;46.70;22.03;;;8.30;99.90;;;;;;4914838;29;20048;-85
2021/12/12 14:08:31;;;;;;;51.73;23.13;;;8.30;99.90;;;;;;4916654;29;20085;-85
2021/12/12 14:11:04;;;;;;;47.87;19.77;;;9.00;99.90;;;;;;4914321;29;20046;-86
2021/12/12 14:13:38;;;;;;;51.77;25.07;;;8.40;99.90;;;;;;4914921;29;20083;-85
2021/12/12 14:16:28;;;;;;;52.07;21.97;;;8.40;99.90;;;;;;4897818;29;20088;-85
2021/12/12 14:19:45;;;;;;;43.77;18.83;;;8.20;99.90;;;;;;4895006;29;20087;-85
2021/12/12 14:22:11;;;;;;;44.73;18.43;;;8.50;99.90;;;;;;4875564;29;20060;-84